createdAt,value
2019-02-19T00:00:47.789Z,0.04
2019-02-19T00:01:47.778Z,0.21
2019-02-19T00:02:47.767Z,0.32
2019-02-19T00:03:47.760Z,0.31
2019-02-19T00:04:47.746Z,0.41
2019-02-19T00:05:47.737Z,0.41
2019-02-19T00:06:47.726Z,0.41
2019-02-19T00:07:47.714Z,0.47
2019-02-19T00:08:47.705Z,0.51
2019-02-19T00:09:47.693Z,0.53
2019-02-19T00:10:47.684Z,0.60
2019-02-19T00:11:47.674Z,0.60
2019-02-19T00:12:47.663Z,0.60
2019-02-19T00:13:47.651Z,0.66
2019-02-19T00:14:47.649Z,0.79
2019-02-19T00:15:47.631Z,0.79
2019-02-19T00:16:47.621Z,0.87
2019-02-19T00:17:47.611Z,0.96
2019-02-19T00:18:47.600Z,0.96
2019-02-19T00:19:47.591Z,1.05
2019-02-19T00:20:47.583Z,1.12
2019-02-19T00:21:47.567Z,1.14
2019-02-19T00:22:47.559Z,1.18
2019-02-19T00:23:47.546Z,1.20
2019-02-19T00:24:47.538Z,1.24
2019-02-19T00:25:47.533Z,1.26
2019-02-19T00:26:47.515Z,1.34
2019-02-19T00:27:47.507Z,1.32
2019-02-19T00:28:47.888Z,1.44
2019-02-19T00:29:47.483Z,1.45
2019-02-19T00:30:47.478Z,1.48
2019-02-19T00:31:47.469Z,1.44
2019-02-19T00:32:47.452Z,1.59
2019-02-19T00:33:47.443Z,1.55
2019-02-19T00:34:47.431Z,1.58
2019-02-19T00:35:47.420Z,1.60
2019-02-19T00:36:47.413Z,1.59
2019-02-19T00:37:47.399Z,1.65
2019-02-19T00:38:47.389Z,1.68
2019-02-19T00:39:47.381Z,1.66
2019-02-19T00:40:47.372Z,1.69
2019-02-19T00:41:47.358Z,1.65
2019-02-19T00:42:47.347Z,1.65
2019-02-19T00:43:47.336Z,1.62
2019-02-19T00:44:47.326Z,1.65
2019-02-19T00:45:47.317Z,1.62
2019-02-19T00:46:47.307Z,1.65
2019-02-19T00:47:47.296Z,1.62
2019-02-19T00:48:47.285Z,1.58
2019-02-19T00:49:47.277Z,1.52
2019-02-19T00:50:47.263Z,1.50
2019-02-19T00:51:47.253Z,1.47
2019-02-19T00:52:47.243Z,1.37
2019-02-19T00:53:47.234Z,1.41
2019-02-19T00:54:47.221Z,1.40
2019-02-19T00:55:47.211Z,1.32
2019-02-19T00:56:47.199Z,1.12
2019-02-19T00:57:47.188Z,1.15
2019-02-19T00:58:47.179Z,1.14
2019-02-19T00:59:47.170Z,0.98
2019-02-19T01:00:47.157Z,0.91
2019-02-19T01:01:47.147Z,0.86
2019-02-19T01:02:47.136Z,0.86
2019-02-19T01:03:47.125Z,0.73
2019-02-19T01:04:47.116Z,0.75
2019-02-19T01:05:47.105Z,0.69
2019-02-19T01:06:47.095Z,0.69
2019-02-19T01:07:47.086Z,0.65
2019-02-19T01:08:47.078Z,0.57
2019-02-19T01:09:47.065Z,0.57
2019-02-19T01:10:47.055Z,0.49
2019-02-19T01:11:47.044Z,0.46
2019-02-19T01:12:47.034Z,0.38
2019-02-19T01:13:47.022Z,0.38
2019-02-19T01:14:47.013Z,0.35
2019-02-19T01:15:46.991Z,0.32
2019-02-19T01:16:46.996Z,0.38
2019-02-19T01:17:46.973Z,0.47
2019-02-19T01:18:46.960Z,0.28
2019-02-19T01:19:46.949Z,0.21
2019-02-19T01:20:46.939Z,0.23
2019-02-19T01:21:46.931Z,0.21
2019-02-19T01:22:46.918Z,0.21
2019-02-19T01:23:46.909Z,0.20
2019-02-19T01:24:46.897Z,0.13
2019-02-19T01:25:46.887Z,0.18
2019-02-19T01:26:46.876Z,0.04
2019-02-19T01:27:46.866Z,0.13
2019-02-19T01:28:46.858Z,0.08
2019-02-19T01:29:46.849Z,0.07
2019-02-19T01:30:46.833Z,0.13
2019-02-19T01:31:46.824Z,0.11
2019-02-19T01:32:46.816Z,0.08
2019-02-19T01:33:46.803Z,0.29
2019-02-19T01:34:46.792Z,0.20
2019-02-19T01:35:46.789Z,0.20
2019-02-19T01:36:46.773Z,0.31
2019-02-19T01:37:46.761Z,0.31
2019-02-19T01:38:46.752Z,0.28
2019-02-19T01:39:47.881Z,0.38
2019-02-19T01:40:46.732Z,0.36
2019-02-19T01:41:46.720Z,0.39
2019-02-19T01:42:46.710Z,0.46
2019-02-19T01:43:46.700Z,0.51
2019-02-19T01:44:46.688Z,0.51
2019-02-19T01:45:46.681Z,0.60
2019-02-19T01:46:46.671Z,0.57
2019-02-19T01:47:46.658Z,0.53
2019-02-19T01:48:46.646Z,0.55
2019-02-19T01:49:46.636Z,0.55
2019-02-19T01:50:46.627Z,0.60
2019-02-19T01:51:46.615Z,0.50
2019-02-19T01:52:46.603Z,0.57
2019-02-19T01:53:46.594Z,0.60
2019-02-19T01:54:46.633Z,0.51
2019-02-19T01:55:46.572Z,0.58
2019-02-19T01:56:46.562Z,0.47
2019-02-19T01:57:46.553Z,0.38
2019-02-19T01:58:46.541Z,0.47
2019-02-19T01:59:46.531Z,0.51
2019-02-19T02:00:46.522Z,0.55
2019-02-19T02:01:46.511Z,0.57
2019-02-19T02:02:46.501Z,0.36
2019-02-19T02:03:46.488Z,0.38
2019-02-19T02:04:46.481Z,0.44
2019-02-19T02:05:46.467Z,0.33
2019-02-19T02:06:46.472Z,0.41
2019-02-19T02:07:46.446Z,0.69
2019-02-19T02:08:46.436Z,0.88
2019-02-19T02:09:46.426Z,1.06
2019-02-19T02:10:46.414Z,1.11
2019-02-19T02:11:46.409Z,1.06
2019-02-19T02:13:01.121Z,1.09
2019-02-19T02:13:46.384Z,1.11
2019-02-19T02:14:46.374Z,1.14
2019-02-19T02:15:46.363Z,1.23
2019-02-19T02:16:46.354Z,1.15
2019-02-19T02:17:46.343Z,1.40
2019-02-19T02:18:46.332Z,1.37
2019-02-19T02:19:46.320Z,1.29
2019-02-19T02:20:46.310Z,1.32
2019-02-19T02:21:46.300Z,1.40
2019-02-19T02:22:46.289Z,1.32
2019-02-19T02:23:46.284Z,1.41
2019-02-19T02:24:46.269Z,1.34
2019-02-19T02:25:46.259Z,1.44
2019-02-19T02:26:46.248Z,1.40
2019-02-19T02:27:46.237Z,1.40
2019-02-19T02:28:46.226Z,1.32
2019-02-19T02:29:46.215Z,1.23
2019-02-19T02:30:46.207Z,1.23
2019-02-19T02:31:46.196Z,1.20
2019-02-19T02:32:46.184Z,1.20
2019-02-19T02:33:46.179Z,1.12
2019-02-19T02:34:46.164Z,1.09
2019-02-19T02:35:46.155Z,1.02
2019-02-19T02:36:46.150Z,1.05
2019-02-19T02:37:46.138Z,1.09
2019-02-19T02:38:46.120Z,1.05
2019-02-19T02:39:46.112Z,0.91
2019-02-19T02:40:46.101Z,1.00
2019-02-19T02:41:46.091Z,0.98
2019-02-19T02:42:46.088Z,1.05
2019-02-19T02:43:46.069Z,1.02
2019-02-19T02:44:46.058Z,1.04
2019-02-19T02:45:53.010Z,0.94
2019-02-19T02:46:47.036Z,0.98
2019-02-19T02:47:46.027Z,0.94
2019-02-19T02:48:46.016Z,0.98
2019-02-19T02:49:46.006Z,0.97
2019-02-19T02:50:45.994Z,0.96
2019-02-19T02:51:45.986Z,0.97
2019-02-19T02:52:45.975Z,1.06
2019-02-19T02:53:45.964Z,1.09
2019-02-19T02:54:45.954Z,1.11
2019-02-19T02:55:45.943Z,1.11
2019-02-19T02:56:45.934Z,1.04
2019-02-19T02:57:45.922Z,1.09
2019-02-19T02:58:45.911Z,1.24
2019-02-19T02:59:45.918Z,1.33
2019-02-19T03:00:45.895Z,1.32
2019-02-19T03:01:45.881Z,1.37
2019-02-19T03:02:45.870Z,1.44
2019-02-19T03:03:45.859Z,1.59
2019-02-19T03:04:45.848Z,1.65
2019-02-19T03:05:45.838Z,1.60
2019-02-19T03:06:45.826Z,1.54
2019-02-19T03:07:45.816Z,1.60
2019-02-19T03:08:45.807Z,1.59
2019-02-19T03:09:45.796Z,1.86
2019-02-19T03:10:45.785Z,2.03
2019-02-19T03:11:45.776Z,1.99
2019-02-19T03:12:45.765Z,2.14
2019-02-19T03:13:45.753Z,2.21
2019-02-19T03:14:45.745Z,2.21
2019-02-19T03:15:45.732Z,2.28
2019-02-19T03:16:45.726Z,2.27
2019-02-19T03:17:45.712Z,2.28
2019-02-19T03:18:45.701Z,2.42
2019-02-19T03:19:45.691Z,2.48
2019-02-19T03:20:45.681Z,2.57
2019-02-19T03:21:45.704Z,2.41
2019-02-19T03:22:45.659Z,2.38
2019-02-19T03:23:45.655Z,2.36
2019-02-19T03:24:45.637Z,2.48
2019-02-19T03:25:45.630Z,2.25
2019-02-19T03:26:45.617Z,2.38
2019-02-19T03:27:45.606Z,2.25
2019-02-19T03:28:45.596Z,2.28
2019-02-19T03:29:45.585Z,2.41
2019-02-19T03:30:45.577Z,2.43
2019-02-19T03:31:45.565Z,2.48
2019-02-19T03:32:45.554Z,2.46
2019-02-19T03:33:45.552Z,2.48
2019-02-19T03:34:45.532Z,2.48
2019-02-19T03:35:45.522Z,2.48
2019-02-19T03:36:45.510Z,2.38
2019-02-19T03:37:45.502Z,2.45
2019-02-19T03:38:45.493Z,2.56
2019-02-19T03:39:45.482Z,2.64
2019-02-19T03:40:45.470Z,2.59
2019-02-19T03:41:45.459Z,2.54
2019-02-19T03:42:45.452Z,2.54
2019-02-19T03:43:45.439Z,2.57
2019-02-19T03:44:45.432Z,2.66
2019-02-19T03:45:45.421Z,2.72
2019-02-19T03:46:45.408Z,2.77
2019-02-19T03:47:45.395Z,2.78
2019-02-19T03:48:45.383Z,2.72
2019-02-19T03:49:45.374Z,2.69
2019-02-19T03:50:45.364Z,2.71
2019-02-19T03:51:45.354Z,2.57
2019-02-19T03:52:45.347Z,2.56
2019-02-19T03:53:45.332Z,2.46
2019-02-19T03:54:45.321Z,2.48
2019-02-19T03:55:45.312Z,2.42
2019-02-19T03:56:45.299Z,2.45
2019-02-19T03:57:45.292Z,2.28
2019-02-19T03:58:45.280Z,2.24
2019-02-19T03:59:45.268Z,2.21
2019-02-19T04:00:45.260Z,2.16
2019-02-19T04:01:45.246Z,2.05
2019-02-19T04:02:45.236Z,2.06
2019-02-19T04:03:45.226Z,2.03
2019-02-19T04:04:45.216Z,1.93
2019-02-19T04:05:45.214Z,1.76
2019-02-19T04:06:45.194Z,1.76
2019-02-19T04:07:45.191Z,1.65
2019-02-19T04:08:45.174Z,1.63
2019-02-19T04:09:45.164Z,1.48
2019-02-19T04:10:45.152Z,1.50
2019-02-19T04:11:45.142Z,1.50
2019-02-19T04:12:45.131Z,1.54
2019-02-19T04:13:45.121Z,1.48
2019-02-19T04:14:45.111Z,1.51
2019-02-19T04:15:45.102Z,1.65
2019-02-19T04:16:45.092Z,1.62
2019-02-19T04:17:45.079Z,1.54
2019-02-19T04:18:45.073Z,1.48
2019-02-19T04:19:45.058Z,1.48
2019-02-19T04:20:45.045Z,1.47
2019-02-19T04:21:45.039Z,1.55
2019-02-19T04:22:45.027Z,1.51
2019-02-19T04:23:45.016Z,1.45
2019-02-19T04:24:45.005Z,1.37
2019-02-19T04:25:44.997Z,1.37
2019-02-19T04:26:45.023Z,1.50
2019-02-19T04:27:44.987Z,1.45
2019-02-19T04:28:44.963Z,1.48
2019-02-19T04:29:44.952Z,1.47
2019-02-19T04:30:44.941Z,1.48
2019-02-19T04:31:44.936Z,1.50
2019-02-19T04:32:44.920Z,1.72
2019-02-19T04:33:44.910Z,1.80
2019-02-19T04:34:44.900Z,1.87
2019-02-19T04:35:44.889Z,1.90
2019-02-19T04:36:44.878Z,1.95
2019-02-19T04:37:44.868Z,2.03
2019-02-19T04:38:44.859Z,2.14
2019-02-19T04:39:44.902Z,2.21
2019-02-19T04:40:44.837Z,2.36
2019-02-19T04:41:44.824Z,2.45
2019-02-19T04:42:44.815Z,2.57
2019-02-19T04:43:44.804Z,2.64
2019-02-19T04:44:44.793Z,2.74
2019-02-19T04:45:44.786Z,2.77
2019-02-19T04:46:44.774Z,2.74
2019-02-19T04:47:44.764Z,2.79
2019-02-19T04:48:44.753Z,2.72
2019-02-19T04:49:44.741Z,2.84
2019-02-19T04:50:44.730Z,2.97
2019-02-19T04:51:44.720Z,3.17
2019-02-19T04:52:44.709Z,3.15
2019-02-19T04:53:44.698Z,3.39
2019-02-19T04:54:44.692Z,3.47
2019-02-19T04:55:44.688Z,3.50
2019-02-19T04:56:44.666Z,3.45
2019-02-19T04:57:44.658Z,3.45
2019-02-19T04:58:44.646Z,3.43
2019-02-19T04:59:44.635Z,3.43
2019-02-19T05:00:44.625Z,3.36
2019-02-19T05:01:44.619Z,3.29
2019-02-19T05:02:44.604Z,3.31
2019-02-19T05:03:44.592Z,3.35
2019-02-19T05:04:44.584Z,3.36
2019-02-19T05:05:44.573Z,3.35
2019-02-19T05:06:44.561Z,3.42
2019-02-19T05:07:44.552Z,3.36
2019-02-19T05:08:44.715Z,3.24
2019-02-19T05:09:44.530Z,3.28
2019-02-19T05:10:44.520Z,3.43
2019-02-19T05:11:44.514Z,3.52
2019-02-19T05:12:44.498Z,3.43
2019-02-19T05:13:44.489Z,3.47
2019-02-19T05:14:44.476Z,3.39
2019-02-19T05:15:44.468Z,3.40
2019-02-19T05:16:44.455Z,3.24
2019-02-19T05:17:44.453Z,3.23
2019-02-19T05:18:44.435Z,3.15
2019-02-19T05:19:44.427Z,3.17
2019-02-19T05:20:44.413Z,3.03
2019-02-19T05:21:44.403Z,2.99
2019-02-19T05:22:44.392Z,2.87
2019-02-19T05:23:44.382Z,2.84
2019-02-19T05:24:44.375Z,2.84
2019-02-19T05:25:44.362Z,2.82
2019-02-19T05:26:44.351Z,2.96
2019-02-19T05:27:44.340Z,3.11
2019-02-19T05:28:44.330Z,3.29
2019-02-19T05:29:44.318Z,3.36
2019-02-19T05:30:44.308Z,3.39
2019-02-19T05:31:44.298Z,3.42
2019-02-19T05:32:44.288Z,3.40
2019-02-19T05:33:44.277Z,3.39
2019-02-19T05:34:44.268Z,3.42
2019-02-19T05:35:44.258Z,3.51
2019-02-19T05:36:44.249Z,3.47
2019-02-19T05:37:44.241Z,3.60
2019-02-19T05:38:44.225Z,3.50
2019-02-19T05:39:44.213Z,3.35
2019-02-19T05:40:44.201Z,3.42
2019-02-19T05:41:44.194Z,3.35
2019-02-19T05:42:44.182Z,3.35
2019-02-19T05:43:44.171Z,3.39
2019-02-19T05:44:44.161Z,3.29
2019-02-19T05:45:44.149Z,3.10
2019-02-19T05:46:49.945Z,3.11
2019-02-19T05:47:45.131Z,3.24
2019-02-19T05:48:44.119Z,3.31
2019-02-19T05:49:44.107Z,3.28
2019-02-19T05:50:44.098Z,3.32
2019-02-19T05:51:44.090Z,3.23
2019-02-19T05:52:44.075Z,3.35
2019-02-19T05:53:44.919Z,3.40
2019-02-19T05:54:44.060Z,3.54
2019-02-19T05:55:44.047Z,3.51
2019-02-19T05:56:44.039Z,3.48
2019-02-19T05:57:44.030Z,3.51
2019-02-19T05:58:44.014Z,3.52
2019-02-19T05:59:44.008Z,3.39
2019-02-19T06:00:43.994Z,3.33
2019-02-19T06:01:43.987Z,3.39
2019-02-19T06:02:43.970Z,3.32
2019-02-19T06:03:43.959Z,3.33
2019-02-19T06:04:43.950Z,3.23
2019-02-19T06:05:43.939Z,3.26
2019-02-19T06:06:43.929Z,3.28
2019-02-19T06:07:43.918Z,3.28
2019-02-19T06:08:43.907Z,3.24
2019-02-19T06:09:43.896Z,3.23
2019-02-19T06:10:44.301Z,3.28
2019-02-19T06:11:43.877Z,3.21
2019-02-19T06:12:43.864Z,3.20
2019-02-19T06:13:43.854Z,3.15
2019-02-19T06:14:43.843Z,3.28
2019-02-19T06:15:43.836Z,3.28
2019-02-19T06:16:43.835Z,3.40
2019-02-19T06:17:43.813Z,3.29
2019-02-19T06:18:43.807Z,3.42
2019-02-19T06:19:43.792Z,3.36
2019-02-19T06:20:43.781Z,3.35
2019-02-19T06:21:43.774Z,3.40
2019-02-19T06:22:43.760Z,3.43
2019-02-19T06:23:43.756Z,3.35
2019-02-19T06:24:43.742Z,3.36
2019-02-19T06:25:43.730Z,3.36
2019-02-19T06:26:43.721Z,3.40
2019-02-19T06:27:43.709Z,3.39
2019-02-19T06:28:43.695Z,3.48
2019-02-19T06:29:43.685Z,3.54
2019-02-19T06:30:43.674Z,3.57
2019-02-19T06:31:43.668Z,3.94
2019-02-19T06:32:43.653Z,4.04
2019-02-19T06:33:43.643Z,4.16
2019-02-19T06:34:43.633Z,4.22
2019-02-19T06:35:43.621Z,4.27
2019-02-19T06:36:43.610Z,4.16
2019-02-19T06:37:43.604Z,4.08
2019-02-19T06:38:43.591Z,4.20
2019-02-19T06:39:43.580Z,4.22
2019-02-19T06:40:43.571Z,4.18
2019-02-19T06:41:43.558Z,4.27
2019-02-19T06:42:43.548Z,4.26
2019-02-19T06:43:43.537Z,4.36
2019-02-19T06:44:43.527Z,4.40
2019-02-19T06:45:43.515Z,4.37
2019-02-19T06:46:43.551Z,4.44
2019-02-19T06:47:43.497Z,4.30
2019-02-19T06:48:43.483Z,4.42
2019-02-19T06:49:43.474Z,4.52
2019-02-19T06:50:43.472Z,4.48
2019-02-19T06:51:43.452Z,4.50
2019-02-19T06:52:43.441Z,4.50
2019-02-19T06:53:43.431Z,4.51
2019-02-19T06:54:43.420Z,4.48
2019-02-19T06:55:44.989Z,4.59
2019-02-19T06:56:43.399Z,4.59
2019-02-19T06:57:43.390Z,4.70
2019-02-19T06:58:43.379Z,4.63
2019-02-19T06:59:43.367Z,4.72
2019-02-19T07:00:43.357Z,4.65
2019-02-19T07:01:43.357Z,4.67
2019-02-19T07:02:43.336Z,4.84
2019-02-19T07:03:43.325Z,4.88
2019-02-19T07:04:43.314Z,4.88
2019-02-19T07:05:43.303Z,4.89
2019-02-19T07:06:43.293Z,4.88
2019-02-19T07:07:43.281Z,4.94
2019-02-19T07:08:43.273Z,5.00
2019-02-19T07:09:43.261Z,4.96
2019-02-19T07:10:43.251Z,4.94
2019-02-19T07:11:43.240Z,5.09
2019-02-19T07:12:43.229Z,5.06
2019-02-19T07:13:43.218Z,5.17
2019-02-19T07:14:43.207Z,5.18
2019-02-19T07:15:43.196Z,5.21
2019-02-19T07:16:43.186Z,5.13
2019-02-19T07:17:43.177Z,5.31
2019-02-19T07:18:43.166Z,5.20
2019-02-19T07:19:43.154Z,5.27
2019-02-19T07:20:43.144Z,5.43
2019-02-19T07:21:43.132Z,5.57
2019-02-19T07:22:43.123Z,5.63
2019-02-19T07:23:43.111Z,5.64
2019-02-19T07:24:43.104Z,5.75
2019-02-19T07:25:43.090Z,5.79
2019-02-19T07:26:43.080Z,5.74
2019-02-19T07:27:43.068Z,5.78
2019-02-19T07:28:43.060Z,5.83
2019-02-19T07:29:43.053Z,5.86
2019-02-19T07:30:43.036Z,5.89
2019-02-19T07:31:43.027Z,5.85
2019-02-19T07:32:43.016Z,6.00
2019-02-19T07:33:43.007Z,5.96
2019-02-19T07:34:42.993Z,6.00
2019-02-19T07:35:42.984Z,6.09
2019-02-19T07:36:42.975Z,6.14
2019-02-19T07:37:42.982Z,6.14
2019-02-19T07:38:42.951Z,6.18
2019-02-19T07:39:42.940Z,6.17
2019-02-19T07:40:42.929Z,6.18
2019-02-19T07:41:42.921Z,6.27
2019-02-19T07:42:42.911Z,6.37
2019-02-19T07:43:42.897Z,6.31
2019-02-19T07:44:42.890Z,6.38
2019-02-19T07:45:42.876Z,6.34
2019-02-19T07:46:42.865Z,6.43
2019-02-19T07:47:42.857Z,6.49
2019-02-19T07:48:42.845Z,6.58
2019-02-19T07:49:42.833Z,6.40
2019-02-19T07:50:42.822Z,6.51
2019-02-19T07:51:42.821Z,6.51
2019-02-19T07:52:42.802Z,6.44
2019-02-19T07:53:42.812Z,6.46
2019-02-19T07:54:42.779Z,6.46
2019-02-19T07:55:42.772Z,6.43
2019-02-19T07:56:42.763Z,6.51
2019-02-19T07:57:42.979Z,6.48
2019-02-19T07:58:42.738Z,6.54
2019-02-19T07:59:42.733Z,6.49
2019-02-19T08:00:42.719Z,6.59
2019-02-19T08:01:42.706Z,6.56
2019-02-19T08:02:42.695Z,6.61
2019-02-19T08:03:42.684Z,6.64
2019-02-19T08:04:42.672Z,6.69
2019-02-19T08:05:42.662Z,6.74
2019-02-19T08:06:42.652Z,6.69
2019-02-19T08:07:42.644Z,6.81
2019-02-19T08:08:42.634Z,6.76
2019-02-19T08:09:42.619Z,6.77
2019-02-19T08:10:42.610Z,6.88
2019-02-19T08:11:42.603Z,6.94
2019-02-19T08:12:42.588Z,6.94
2019-02-19T08:13:42.580Z,6.94
2019-02-19T08:14:42.566Z,6.95
2019-02-19T08:15:42.556Z,6.88
2019-02-19T08:16:42.549Z,6.99
2019-02-19T08:17:42.535Z,7.09
2019-02-19T08:18:42.534Z,6.98
2019-02-19T08:19:42.515Z,7.12
2019-02-19T08:20:42.503Z,7.10
2019-02-19T08:21:42.492Z,7.20
2019-02-19T08:22:42.482Z,7.30
2019-02-19T08:23:42.557Z,7.24
2019-02-19T08:24:42.464Z,7.31
2019-02-19T08:25:42.450Z,7.37
2019-02-19T08:26:42.440Z,7.40
2019-02-19T08:27:42.442Z,7.45
2019-02-19T08:28:42.419Z,7.53
2019-02-19T08:29:42.407Z,7.48
2019-02-19T08:30:42.394Z,7.53
2019-02-19T08:31:42.386Z,7.58
2019-02-19T08:32:42.377Z,7.58
2019-02-19T08:33:42.370Z,7.74
2019-02-19T08:34:42.366Z,7.74
2019-02-19T08:35:42.342Z,7.93
2019-02-19T08:36:42.333Z,7.93
2019-02-19T08:37:42.322Z,8.02
2019-02-19T08:38:43.062Z,8.08
2019-02-19T08:39:42.301Z,8.07
2019-02-19T08:40:42.296Z,8.20
2019-02-19T08:41:42.279Z,8.29
2019-02-19T08:42:42.267Z,8.36
2019-02-19T08:43:42.256Z,8.34
2019-02-19T08:44:42.246Z,8.43
2019-02-19T08:45:42.234Z,8.41
2019-02-19T08:46:42.224Z,8.43
2019-02-19T08:47:43.004Z,8.41
2019-02-19T08:48:42.202Z,8.48
2019-02-19T08:49:42.193Z,8.52
2019-02-19T08:50:42.182Z,8.58
2019-02-19T08:51:42.171Z,8.48
2019-02-19T08:52:42.158Z,8.56
2019-02-19T08:53:42.150Z,8.50
2019-02-19T08:54:42.139Z,8.53
2019-02-19T08:55:42.151Z,8.43
2019-02-19T08:56:42.122Z,8.47
2019-02-19T08:57:42.105Z,8.37
2019-02-19T08:58:42.095Z,8.52
2019-02-19T08:59:42.084Z,8.47
2019-02-19T09:00:42.077Z,8.44
2019-02-19T09:01:42.068Z,8.38
2019-02-19T09:02:42.056Z,8.38
2019-02-19T09:03:42.040Z,8.37
2019-02-19T09:04:42.029Z,8.36
2019-02-19T09:05:42.036Z,8.40
2019-02-19T09:06:42.019Z,8.50
2019-02-19T09:07:41.999Z,8.73
2019-02-19T09:08:41.987Z,8.68
2019-02-19T09:09:41.976Z,8.83
2019-02-19T09:10:41.964Z,8.98
2019-02-19T09:11:41.953Z,9.05
2019-02-19T09:12:41.946Z,8.92
2019-02-19T09:13:41.931Z,8.96
2019-02-19T09:14:41.919Z,8.98
2019-02-19T09:15:41.909Z,8.95
2019-02-19T09:16:41.901Z,9.05
2019-02-19T09:17:41.888Z,8.95
2019-02-19T09:18:41.879Z,9.02
2019-02-19T09:19:41.870Z,8.83
2019-02-19T09:20:41.855Z,8.77
2019-02-19T09:21:41.846Z,8.80
2019-02-19T09:22:41.833Z,8.77
2019-02-19T09:23:42.403Z,8.89
2019-02-19T09:24:41.811Z,8.89
2019-02-19T09:25:41.801Z,8.95
2019-02-19T09:26:41.793Z,9.11
2019-02-19T09:27:43.289Z,9.13
2019-02-19T09:28:41.768Z,9.10
2019-02-19T09:29:41.758Z,9.23
2019-02-19T09:30:41.748Z,9.23
2019-02-19T09:31:41.735Z,9.18
2019-02-19T09:32:41.724Z,9.14
2019-02-19T09:33:41.717Z,9.20
2019-02-19T09:34:41.704Z,9.20
2019-02-19T09:35:41.692Z,9.20
2019-02-19T09:36:41.683Z,9.33
2019-02-19T09:37:41.674Z,9.26
2019-02-19T09:38:41.659Z,9.26
2019-02-19T09:39:41.649Z,9.42
2019-02-19T09:40:41.637Z,9.31
2019-02-19T09:41:41.629Z,9.31
2019-02-19T09:42:41.621Z,9.23
2019-02-19T09:43:41.605Z,9.33
2019-02-19T09:44:41.594Z,9.23
2019-02-19T09:45:41.585Z,9.32
2019-02-19T09:46:41.585Z,9.26
2019-02-19T09:47:41.576Z,9.29
2019-02-19T09:48:41.554Z,9.29
2019-02-19T09:49:41.544Z,9.31
2019-02-19T09:50:41.530Z,9.26
2019-02-19T09:51:41.518Z,9.26
2019-02-19T09:52:41.507Z,9.32
2019-02-19T09:53:41.508Z,9.28
2019-02-19T09:54:41.486Z,9.29
2019-02-19T09:55:41.475Z,9.31
2019-02-19T09:56:41.466Z,9.29
2019-02-19T09:57:41.455Z,9.29
2019-02-19T09:58:41.443Z,9.26
2019-02-19T09:59:41.436Z,9.35
2019-02-19T10:00:41.424Z,9.28
2019-02-19T10:01:41.415Z,9.29
2019-02-19T10:02:41.401Z,9.38
2019-02-19T10:03:41.388Z,9.38
2019-02-19T10:04:41.379Z,9.39
2019-02-19T10:05:41.371Z,9.54
2019-02-19T10:06:41.377Z,9.64
2019-02-19T10:07:41.349Z,9.65
2019-02-19T10:08:41.335Z,9.75
2019-02-19T10:09:41.324Z,9.74
2019-02-19T10:10:41.313Z,9.65
2019-02-19T10:11:41.310Z,9.69
2019-02-19T10:12:41.293Z,9.71
2019-02-19T10:13:41.283Z,9.71
2019-02-19T10:14:41.271Z,9.68
2019-02-19T10:15:41.263Z,9.69
2019-02-19T10:16:41.995Z,9.69
2019-02-19T10:17:41.239Z,9.72
2019-02-19T10:18:41.234Z,9.56
2019-02-19T10:19:41.220Z,9.60
2019-02-19T10:20:41.206Z,9.60
2019-02-19T10:21:41.201Z,9.60
2019-02-19T10:22:41.185Z,9.54
2019-02-19T10:23:41.175Z,9.51
2019-02-19T10:24:41.165Z,9.46
2019-02-19T10:25:41.152Z,9.48
2019-02-19T10:26:41.159Z,9.36
2019-02-19T10:27:41.131Z,9.39
2019-02-19T10:28:41.122Z,9.36
2019-02-19T10:29:41.109Z,9.28
2019-02-19T10:30:41.099Z,9.26
2019-02-19T10:31:41.088Z,9.36
2019-02-19T10:32:41.081Z,9.32
2019-02-19T10:33:41.087Z,9.39
2019-02-19T10:34:41.056Z,9.42
2019-02-19T10:35:41.046Z,9.40
2019-02-19T10:36:41.037Z,9.50
2019-02-19T10:37:41.026Z,9.58
2019-02-19T10:38:41.012Z,9.65
2019-02-19T10:39:41.003Z,9.69
2019-02-19T10:40:40.991Z,9.71
2019-02-19T10:41:40.980Z,9.66
2019-02-19T10:42:40.971Z,9.47
2019-02-19T10:43:40.962Z,9.51
2019-02-19T10:44:40.953Z,9.57
2019-02-19T10:45:40.937Z,9.50
2019-02-19T10:46:40.926Z,9.48
2019-02-19T10:47:40.917Z,9.47
2019-02-19T10:48:40.907Z,9.48
2019-02-19T10:49:40.895Z,9.60
2019-02-19T10:50:40.886Z,9.69
2019-02-19T10:51:40.875Z,9.74
2019-02-19T10:52:40.863Z,9.84
2019-02-19T10:53:40.862Z,9.78
2019-02-19T10:54:40.841Z,9.86
2019-02-19T10:55:40.873Z,9.91
2019-02-19T10:56:40.819Z,9.94
2019-02-19T10:57:40.810Z,10.07
2019-02-19T10:58:40.801Z,10.14
2019-02-19T10:59:40.789Z,10.22
2019-02-19T11:00:40.792Z,10.26
2019-02-19T11:01:40.767Z,10.22
2019-02-19T11:02:40.756Z,10.01
2019-02-19T11:03:40.744Z,10.04
2019-02-19T11:04:40.741Z,10.04
2019-02-19T11:05:40.726Z,10.15
2019-02-19T11:06:40.714Z,10.12
2019-02-19T11:07:40.708Z,10.08
2019-02-19T11:08:40.692Z,10.11
2019-02-19T11:09:40.682Z,10.04
2019-02-19T11:10:40.670Z,10.09
2019-02-19T11:11:40.659Z,10.08
2019-02-19T11:12:40.651Z,10.01
2019-02-19T11:13:40.638Z,10.02
2019-02-19T11:14:40.629Z,10.14
2019-02-19T11:15:40.616Z,10.12
2019-02-19T11:16:40.607Z,10.12
2019-02-19T11:17:40.596Z,10.01
2019-02-19T11:18:40.585Z,10.11
2019-02-19T11:19:40.573Z,10.04
2019-02-19T11:20:40.569Z,10.02
2019-02-19T11:21:40.551Z,10.02
2019-02-19T11:22:40.543Z,10.15
2019-02-19T11:23:40.531Z,10.09
2019-02-19T11:24:40.520Z,10.12
2019-02-19T11:25:40.510Z,10.14
2019-02-19T11:26:40.499Z,10.12
2019-02-19T11:27:40.491Z,10.09
2019-02-19T11:28:41.157Z,10.12
2019-02-19T11:29:40.467Z,10.12
2019-02-19T11:30:40.455Z,10.15
2019-02-19T11:31:40.445Z,10.17
2019-02-19T11:32:40.435Z,10.20
2019-02-19T11:33:40.429Z,10.25
2019-02-19T11:34:40.420Z,10.22
2019-02-19T11:35:40.404Z,10.32
2019-02-19T11:36:40.390Z,10.30
2019-02-19T11:37:40.382Z,10.32
2019-02-19T11:38:40.369Z,10.22
2019-02-19T11:39:40.362Z,10.30
2019-02-19T11:40:40.349Z,10.23
2019-02-19T11:41:40.338Z,10.30
2019-02-19T11:42:40.330Z,10.38
2019-02-19T11:43:40.320Z,10.47
2019-02-19T11:44:40.306Z,10.51
2019-02-19T11:45:40.295Z,10.59
2019-02-19T11:46:40.285Z,10.55
2019-02-19T11:47:40.273Z,10.73
2019-02-19T11:48:40.267Z,10.71
2019-02-19T11:49:40.253Z,10.67
2019-02-19T11:50:40.250Z,10.70
2019-02-19T11:51:40.237Z,10.56
2019-02-19T11:52:40.222Z,10.68
2019-02-19T11:53:40.210Z,10.59
2019-02-19T11:54:40.200Z,10.59
2019-02-19T11:55:40.207Z,10.55
2019-02-19T11:56:40.181Z,10.47
2019-02-19T11:57:40.169Z,10.41
2019-02-19T11:58:40.157Z,10.44
2019-02-19T11:59:40.146Z,10.38
2019-02-19T12:00:40.136Z,10.18
2019-02-19T12:01:40.144Z,10.11
2019-02-19T12:02:40.114Z,10.05
2019-02-19T12:03:40.103Z,10.04
2019-02-19T12:04:40.092Z,9.97
2019-02-19T12:05:40.080Z,10.08
2019-02-19T12:06:40.072Z,9.99
2019-02-19T12:07:40.060Z,9.96
2019-02-19T12:08:40.053Z,9.93
2019-02-19T12:09:40.038Z,9.93
2019-02-19T12:10:40.028Z,10.01
2019-02-19T12:11:40.019Z,9.91
2019-02-19T12:12:40.006Z,9.96
2019-02-19T12:13:39.998Z,10.02
2019-02-19T12:14:39.986Z,10.04
2019-02-19T12:15:39.974Z,10.05
2019-02-19T12:16:39.963Z,10.15
2019-02-19T12:17:39.955Z,10.02
2019-02-19T12:18:45.942Z,10.14
2019-02-19T12:19:40.931Z,10.25
2019-02-19T12:20:39.922Z,10.36
2019-02-19T12:21:39.914Z,10.38
2019-02-19T12:22:39.899Z,10.41
2019-02-19T12:23:39.888Z,10.61
2019-02-19T12:24:39.880Z,10.67
2019-02-19T12:25:39.868Z,10.70
2019-02-19T12:26:39.858Z,10.78
2019-02-19T12:27:39.845Z,10.86
2019-02-19T12:28:39.834Z,10.96
2019-02-19T12:29:39.825Z,11.02
2019-02-19T12:30:39.813Z,10.94
2019-02-19T12:31:39.805Z,10.71
2019-02-19T12:32:39.792Z,10.67
2019-02-19T12:33:39.780Z,10.66
2019-02-19T12:34:39.770Z,10.67
2019-02-19T12:35:39.763Z,10.76
2019-02-19T12:36:39.752Z,10.88
2019-02-19T12:37:39.742Z,10.82
2019-02-19T12:38:39.728Z,10.97
2019-02-19T12:39:39.719Z,10.89
2019-02-19T12:40:39.718Z,10.91
2019-02-19T12:41:39.695Z,10.94
2019-02-19T12:42:39.685Z,10.94
2019-02-19T12:43:39.679Z,10.97
2019-02-19T12:44:39.664Z,10.84
2019-02-19T12:45:39.657Z,10.81
2019-02-19T12:46:39.648Z,10.86
2019-02-19T12:47:39.630Z,10.84
2019-02-19T12:48:39.623Z,10.88
2019-02-19T12:49:39.614Z,10.68
2019-02-19T12:50:39.600Z,10.68
2019-02-19T12:51:39.625Z,10.76
2019-02-19T12:52:39.579Z,10.78
2019-02-19T12:53:39.566Z,10.68
2019-02-19T12:54:39.555Z,10.79
2019-02-19T12:55:39.545Z,10.74
2019-02-19T12:56:39.537Z,10.76
2019-02-19T12:57:39.525Z,10.79
2019-02-19T12:58:39.517Z,10.76
2019-02-19T12:59:39.504Z,10.73
2019-02-19T13:00:39.493Z,10.67
2019-02-19T13:01:39.482Z,10.59
2019-02-19T13:02:39.470Z,10.59
2019-02-19T13:03:39.465Z,10.67
2019-02-19T13:04:39.449Z,10.66
2019-02-19T13:05:39.441Z,10.52
2019-02-19T13:06:39.430Z,10.63
2019-02-19T13:07:39.417Z,10.55
2019-02-19T13:08:39.408Z,10.60
2019-02-19T13:09:39.399Z,10.67
2019-02-19T13:10:39.387Z,10.56
2019-02-19T13:11:39.374Z,10.51
2019-02-19T13:12:39.366Z,10.56
2019-02-19T13:13:39.353Z,10.60
2019-02-19T13:14:39.342Z,10.56